This is the latest recevied weather packets stored in our database for station/object KGPT. If no packets are shown the sender has not sent any weather packets the latest 10 day(s).
| Time | Temp. | Humidity | Pressure | Rain* | Wind** | Luminosity | Snow |
|---|---|---|---|---|---|---|---|
| 1778267013 | 20.56° C | 83% | 1014.2 hPa | - | - | - | - |
| 1778266410 | 20.56° C | 77% | 1014.2 hPa | - | - | - | - |
| 1778265814 | 20.56° C | 77% | 1014.2 hPa | - | - | - | - |
| 1778265213 | 20.56° C | 77% | 1014.2 hPa | - | - | - | - |
| 1778264608 | 20° C | 82% | 1014.9 hPa | - | - | - | - |
| 1778264009 | 20° C | 82% | 1014.9 hPa | - | - | - | - |
| 1778263410 | 20.56° C | 83% | 1014.9 hPa | - | - | - | - |
| 1778262812 | 21.67° C | 78% | 1014.9 hPa | - | - | - | - |
| 1778262206 | 21.67° C | 78% | 1014.9 hPa | - | - | - | - |
| 1778261611 | 21.67° C | 78% | 1014.9 hPa | - | - | - | - |
| 1778261011 | 21.67° C | 78% | 1014.9 hPa | - | - | - | - |
| 1778260414 | 21.67° C | 78% | 1014.2 hPa | - | - | - | - |
| 1778259812 | 21.67° C | 78% | 1014.2 hPa | - | - | - | - |
| 1778259209 | 20.56° C | 77% | 1014.9 hPa | - | - | - | - |
| 1778258614 | 20.56° C | 77% | 1014.9 hPa | - | - | - | - |
| 1778258010 | 20.56° C | 77% | 1014.9 hPa | - | - | - | - |
| 1778257410 | 20.56° C | 77% | 1014.9 hPa | - | - | - | - |
| 1778256812 | 20.56° C | 77% | 1014.9 hPa | - | - | - | - |
| 1778256214 | 20.56° C | 77% | 1014.9 hPa | - | - | - | - |
| 1778255612 | 18.89° C | 82% | 1014.9 hPa | - | - | - | - |
| 1778255012 | 18.89° C | 82% | 1014.9 hPa | - | - | - | - |
| 1778254411 | 18.89° C | 82% | 1014.9 hPa | - | - | - | - |
| 1778253810 | 18.89° C | 82% | 1014.9 hPa | - | - | - | - |
| 1778253212 | 18.89° C | 82% | 1014.9 hPa | - | - | - | - |
| 1778252609 | 18.89° C | 82% | 1014.9 hPa | - | - | - | - |
* Rain since midnight (hover to see other rain measurements)
** Current wind speed in m/s (hover to see current wind gust speed)